Monday, August 20, 2018, 7:45 AM CDT
Back to Local

KLOT, Chicago/romeoville, Lewis University Airport

Location: Lockport, IL, United States Lat: 41.608
Local Time: 7:45 AM CDT (12:45 GMT) Lon: -88.094
Time Zone: US/Central Elev: 672 ft

Show me the last for .
Show Coded

Time T Td Feel RH Dir Speed Gust Alt SLP Vis Weather Sky Remarks
2018-08-20 07:35 70 64 76 82 120° 7 - 29.92 - 10 CLR None
2018-08-20 07:15 70 64 - 83 120° 9 - 29.92 - 10 CLR None
2018-08-20 06:55 69 64 - 84 120° 6 - 29.91 - 10 CLR 6-hr Min Temp (7am): 68.5°F
6-hr Max Temp (7am): 72.0°F
2018-08-20 06:35 69 64 - 85 110° 5 - 29.90 - 10 CLR None
2018-08-20 06:15 69 64 - 84 100° 6 - 29.90 - 10 CLR None
2018-08-20 05:55 69 64 - 84 120° 5 - 29.91 - 10 CLR None
2018-08-20 05:35 69 64 - 84 110° 7 - 29.91 - 10 CLR None
2018-08-20 05:15 69 64 - 84 120° 6 - 29.91 - 10 CLR None
2018-08-20 04:55 69 64 - 82 130° 7 - 29.91 - 10 CLR None
2018-08-20 04:35 70 64 - 81 120° 6 - 29.91 - 10 CLR None
2018-08-20 04:15 70 64 - 81 130° 7 - 29.92 - 10 CLR None
2018-08-20 03:55 70 64 76 82 130° 7 - 29.92 - 10 CLR None
2018-08-20 03:35 71 64 76 81 120° 9 - 29.92 - 10 CLR None
2018-08-20 03:15 70 65 76 82 120° 6 - 29.92 - 10 CLR None
2018-08-20 02:55 71 65 76 81 130° 5 - 29.93 - 10 CLR None
2018-08-20 02:35 71 65 76 81 130° 8 - 29.93 - 10 CLR None
2018-08-20 02:15 71 65 76 81 150° 6 - 29.95 - 10 CLR None
2018-08-20 01:55 71 65 76 80 130° 7 - 29.94 - 10 CLR None
2018-08-20 01:35 71 65 76 82 130° 7 - 29.94 - 10 CLR None
2018-08-20 01:15 71 65 76 82 140° 5 - 29.95 - 10 CLR None
2018-08-20 00:55 72 65 76 80 130° 7 - 29.95 - 10 CLR 6-hr Min Temp (1am): 71.8°F
6-hr Max Temp (1am): 79.5°F
24-hr Min Temp (1am): 62.1°F
24-hr Max Temp (1am): 86.0°F
2018-08-20 00:35 73 66 77 80 130° 7 - 29.95 - 10 CLR None
2018-08-20 00:15 72 67 76 82 120° 6 - 29.96 - 10 CLR None
2018-08-19 23:55 73 67 77 83 120° 7 - 29.96 - 10 CLR None
2018-08-19 23:35 73 68 77 82 120° 7 - 29.96 - 10 CLR None
2018-08-19 23:15 73 69 77 86 110° 7 - 29.96 - 10 CLR None
2018-08-19 22:55 73 69 77 88 100° 6 - 29.97 - 10 CLR None
2018-08-19 22:35 73 69 77 89 100° 6 - 29.96 - 10 CLR None
2018-08-19 22:15 73 69 77 88 90° 6 - 29.96 - 10 CLR None
2018-08-19 21:55 74 69 78 86 90° 5 - 29.97 - 10 CLR None
2018-08-19 21:35 74 69 78 84 80° 8 - 29.96 - 10 CLR None
2018-08-19 21:15 74 69 78 83 90° 7 - 29.95 - 10 CLR None
2018-08-19 20:55 75 69 78 82 80° 8 - 29.95 - 10 CLR None
2018-08-19 20:35 75 69 79 80 80° 8 - 29.95 - 10 CLR None
2018-08-19 20:15 76 69 79 80 80° 7 - 29.95 - 10 CLR None
2018-08-19 19:55 76 69 80 77 90° 7 - 29.94 - 10 CLR None
2018-08-19 19:35 77 69 81 75 90° 8 - 29.94 - 10 CLR None
2018-08-19 19:15 78 69 81 73 90° 9 - 29.94 - 10 SCT050 SCT065 None
2018-08-19 18:55 80 69 83 69 100° 9 - 29.93 - 10 SCT050 SCT065 SCT075 6-hr Min Temp (7pm): 79.7°F
6-hr Max Temp (7pm): 86.0°F
2018-08-19 18:35 80 69 84 67 100° 5 - 29.93 - 10 SCT055 None
2018-08-19 18:15 81 69 85 66 100° 6 - 29.93 - 10 SCT060 SCT070 None
2018-08-19 17:55 82 69 85 65 90° 6 - 29.93 - 10 SCT065 SCT070 None
2018-08-19 17:35 82 69 85 64 90° 6 - 29.93 - 10 SCT044 SCT050 SCT060 None
2018-08-19 17:15 84 68 87 58 90° 6 - 29.93 - 10 SCT045 BKN050 None
2018-08-19 16:55 85 67 88 54 80° 8 - 29.93 - 10 BKN050 BKN065 None
2018-08-19 16:35 85 64 87 48 140° 8 - 29.93 - 10 BKN050 BKN065 None
2018-08-19 16:15 85 62 87 45 170° 7 - 29.94 - 10 SCT050 SCT065 None
2018-08-19 15:55 84 62 85 47 140° 3 - 29.94 - 10 SCT050 None
2018-08-19 15:35 85 64 87 49 120° 5 - 29.95 - 10 CLR None
2018-08-19 15:15 84 64 86 50 140° 5 - 29.96 - 10 SCT060 SCT070 None
2018-08-19 14:55 84 64 86 50 140° 7 - 29.97 - 10 SCT050 SCT060 SCT070 None
2018-08-19 14:35 85 65 88 50 130° 5 - 29.97 - 10 CLR None
2018-08-19 14:15 83 64 85 51 140° 5 - 29.98 - 10 SCT044 SCT050 None
2018-08-19 13:55 84 64 86 51 210° 6 - 29.99 - 10 SCT042 SCT050 None
2018-08-19 13:35 84 65 87 52 120° 5 - 29.99 - 10 BKN042 None
2018-08-19 13:15 82 65 84 57 40° 3 - 29.99 - 10 SCT042 None
2018-08-19 12:55 81 66 83 60 - Calm - 30.00 - 10 SCT041 SCT050 6-hr Min Temp (1pm): 64.9°F
6-hr Max Temp (1pm): 83.5°F
2018-08-19 12:35 83 65 86 55 160° 6 - 30.00 - 10 BKN039 BKN048 None
2018-08-19 12:15 83 66 86 57 180° 6 - 30.01 - 10 SCT035 BKN047 BKN070 None
2018-08-19 11:55 81 67 84 64 140° 6 - 30.01 - 10 BKN033 OVC055 None
2018-08-19 11:35 80 66 83 62 - Calm - 30.01 - 10 BKN031 OVC036 None
2018-08-19 11:15 81 68 84 65 80° 3 - 30.01 - 10 SCT029 SCT034 None
2018-08-19 10:55 79 67 82 67 - Calm - 30.01 - 10 SCT027 None
2018-08-19 10:35 78 67 81 68 140° 3 - 30.00 - 10 SCT025 None
2018-08-19 10:15 78 67 81 68 80° 3 - 30.00 - 10 CLR None
2018-08-19 09:55 78 68 81 72 90° 3 - 30.01 - 10 CLR None
2018-08-19 09:35 77 69 80 76 90° 6 - 30.01 - 10 CLR None
2018-08-19 09:15 75 69 79 81 80° 6 - 30.00 - 10 CLR None
2018-08-19 08:55 74 70 78 85 100° 5 - 30.00 - 10 CLR None
2018-08-19 08:35 73 69 77 89 90° 5 - 30.00 - 10 CLR None
2018-08-19 08:15 70 70 76 100 - Calm - 30.00 - 10 CLR None
2018-08-19 07:55 69 69 - 100 70° 3 - 30.00 - 7 CLR None

Support USWX by starting your Amazon purchase here.